sensor_id;sensor_type;location;lat;lon;timestamp;temperature;humidity
44843;DHT22;31884;52.538;13.820;2023-03-01T00:01:46;-4.10;98.20
44843;DHT22;31884;52.538;13.820;2023-03-01T00:04:12;-4.10;97.90
44843;DHT22;31884;52.538;13.820;2023-03-01T00:06:38;-4.10;98.20
44843;DHT22;31884;52.538;13.820;2023-03-01T00:09:04;-4.20;97.90
44843;DHT22;31884;52.538;13.820;2023-03-01T00:11:31;-4.20;97.90
44843;DHT22;31884;52.538;13.820;2023-03-01T00:13:59;-4.20;97.80
44843;DHT22;31884;52.538;13.820;2023-03-01T00:16:30;-4.20;98.80
44843;DHT22;31884;52.538;13.820;2023-03-01T00:18:56;-4.20;99.90
44843;DHT22;31884;52.538;13.820;2023-03-01T00:21:23;-4.20;99.90
44843;DHT22;31884;52.538;13.820;2023-03-01T00:23:49;-4.30;99.90
44843;DHT22;31884;52.538;13.820;2023-03-01T00:26:17;-4.30;99.90
44843;DHT22;31884;52.538;13.820;2023-03-01T00:28:43;-4.30;99.90
44843;DHT22;31884;52.538;13.820;2023-03-01T00:31:11;-4.30;99.90
44843;DHT22;31884;52.538;13.820;2023-03-01T00:33:37;-4.30;99.90
44843;DHT22;31884;52.538;13.820;2023-03-01T00:36:03;-4.40;99.90
44843;DHT22;31884;52.538;13.820;2023-03-01T00:38:29;-4.40;99.90
44843;DHT22;31884;52.538;13.820;2023-03-01T00:40:55;-4.40;99.90
44843;DHT22;31884;52.538;13.820;2023-03-01T00:43:21;-4.40;99.90
44843;DHT22;31884;52.538;13.820;2023-03-01T00:45:46;-4.40;99.90
44843;DHT22;31884;52.538;13.820;2023-03-01T00:48:12;-4.40;99.90
44843;DHT22;31884;52.538;13.820;2023-03-01T00:50:37;-4.40;99.90
44843;DHT22;31884;52.538;13.820;2023-03-01T00:53:02;-4.50;99.90
44843;DHT22;31884;52.538;13.820;2023-03-01T00:55:30;-4.50;99.90
44843;DHT22;31884;52.538;13.820;2023-03-01T00:57:55;-4.50;99.90
44843;DHT22;31884;52.538;13.820;2023-03-01T01:00:21;-4.50;99.90
44843;DHT22;31884;52.538;13.820;2023-03-01T01:02:47;-4.50;99.90
44843;DHT22;31884;52.538;13.820;2023-03-01T01:05:13;-4.60;99.90
44843;DHT22;31884;52.538;13.820;2023-03-01T01:07:39;-4.60;99.90
44843;DHT22;31884;52.538;13.820;2023-03-01T01:10:05;-4.60;99.90
44843;DHT22;31884;52.538;13.820;2023-03-01T01:12:31;-4.60;99.90
44843;DHT22;31884;52.538;13.820;2023-03-01T01:14:57;-4.60;99.90
44843;DHT22;31884;52.538;13.820;2023-03-01T01:17:22;-4.70;99.90
44843;DHT22;31884;52.538;13.820;2023-03-01T01:19:48;-4.60;99.90
44843;DHT22;31884;52.538;13.820;2023-03-01T01:22:13;-4.60;99.90
44843;DHT22;31884;52.538;13.820;2023-03-01T01:24:39;-4.70;99.90
44843;DHT22;31884;52.538;13.820;2023-03-01T01:27:04;-4.70;99.90
44843;DHT22;31884;52.538;13.820;2023-03-01T01:29:31;-4.70;99.90
44843;DHT22;31884;52.538;13.820;2023-03-01T01:31:56;-4.70;99.90
44843;DHT22;31884;52.538;13.820;2023-03-01T01:34:21;-4.80;99.90
44843;DHT22;31884;52.538;13.820;2023-03-01T01:36:48;-4.80;99.90
44843;DHT22;31884;52.538;13.820;2023-03-01T01:39:14;-4.80;99.90
44843;DHT22;31884;52.538;13.820;2023-03-01T01:41:41;-4.80;99.90
44843;DHT22;31884;52.538;13.820;2023-03-01T01:44:25;-4.80;99.90
44843;DHT22;31884;52.538;13.820;2023-03-01T01:46:57;-4.90;99.90
44843;DHT22;31884;52.538;13.820;2023-03-01T01:49:37;-4.80;99.90
44843;DHT22;31884;52.538;13.820;2023-03-01T01:52:38;-4.80;99.90
44843;DHT22;31884;52.538;13.820;2023-03-01T01:55:08;-4.80;99.90
44843;DHT22;31884;52.538;13.820;2023-03-01T01:57:53;-4.90;99.90
44843;DHT22;31884;52.538;13.820;2023-03-01T02:00:25;-4.90;99.90
44843;DHT22;31884;52.538;13.820;2023-03-01T02:03:02;-4.90;99.90
44843;DHT22;31884;52.538;13.820;2023-03-01T02:05:50;-5.00;99.90
44843;DHT22;31884;52.538;13.820;2023-03-01T02:08:20;-5.00;99.90
44843;DHT22;31884;52.538;13.820;2023-03-01T02:10:48;-5.00;99.90
44843;DHT22;31884;52.538;13.820;2023-03-01T02:13:14;-5.00;99.90
44843;DHT22;31884;52.538;13.820;2023-03-01T02:15:41;-5.10;99.90
44843;DHT22;31884;52.538;13.820;2023-03-01T02:18:07;-5.10;99.90
44843;DHT22;31884;52.538;13.820;2023-03-01T02:23:02;-5.10;99.90
44843;DHT22;31884;52.538;13.820;2023-03-01T02:25:56;-5.10;99.90
44843;DHT22;31884;52.538;13.820;2023-03-01T02:28:26;-5.10;99.90
44843;DHT22;31884;52.538;13.820;2023-03-01T02:30:53;-5.10;99.90
44843;DHT22;31884;52.538;13.820;2023-03-01T02:33:39;-5.10;99.90
44843;DHT22;31884;52.538;13.820;2023-03-01T02:36:09;-5.10;99.90
44843;DHT22;31884;52.538;13.820;2023-03-01T02:38:36;-5.20;99.90
44843;DHT22;31884;52.538;13.820;2023-03-01T02:41:03;-5.20;99.90
44843;DHT22;31884;52.538;13.820;2023-03-01T02:43:31;-5.20;99.90
44843;DHT22;31884;52.538;13.820;2023-03-01T02:45:59;-5.20;99.90
44843;DHT22;31884;52.538;13.820;2023-03-01T02:48:27;-5.20;99.90
44843;DHT22;31884;52.538;13.820;2023-03-01T02:51:13;-5.20;99.90
44843;DHT22;31884;52.538;13.820;2023-03-01T02:53:54;-5.20;99.90
44843;DHT22;31884;52.538;13.820;2023-03-01T02:56:24;-5.30;99.90
44843;DHT22;31884;52.538;13.820;2023-03-01T02:58:49;-5.30;99.90
44843;DHT22;31884;52.538;13.820;2023-03-01T03:01:18;-5.30;99.90
44843;DHT22;31884;52.538;13.820;2023-03-01T03:03:43;-5.30;99.90
44843;DHT22;31884;52.538;13.820;2023-03-01T03:06:09;-5.30;99.90
44843;DHT22;31884;52.538;13.820;2023-03-01T03:08:35;-5.30;99.90
44843;DHT22;31884;52.538;13.820;2023-03-01T03:11:00;-5.30;99.90
44843;DHT22;31884;52.538;13.820;2023-03-01T03:13:26;-5.30;99.90
44843;DHT22;31884;52.538;13.820;2023-03-01T03:15:54;-5.40;99.90
44843;DHT22;31884;52.538;13.820;2023-03-01T03:18:21;-5.40;99.90
44843;DHT22;31884;52.538;13.820;2023-03-01T03:20:47;-5.40;99.90
44843;DHT22;31884;52.538;13.820;2023-03-01T03:23:13;-5.50;99.90
44843;DHT22;31884;52.538;13.820;2023-03-01T03:25:39;-5.40;99.90
44843;DHT22;31884;52.538;13.820;2023-03-01T03:28:06;-5.50;99.90
44843;DHT22;31884;52.538;13.820;2023-03-01T03:30:37;-5.50;99.90
44843;DHT22;31884;52.538;13.820;2023-03-01T03:33:04;-5.60;99.90
44843;DHT22;31884;52.538;13.820;2023-03-01T03:35:32;-5.50;99.90
44843;DHT22;31884;52.538;13.820;2023-03-01T03:38:05;-5.60;99.90
44843;DHT22;31884;52.538;13.820;2023-03-01T03:40:36;-5.60;99.90
44843;DHT22;31884;52.538;13.820;2023-03-01T03:43:03;-5.60;99.90
44843;DHT22;31884;52.538;13.820;2023-03-01T03:45:29;-5.60;99.90
44843;DHT22;31884;52.538;13.820;2023-03-01T03:47:55;-5.60;99.90
44843;DHT22;31884;52.538;13.820;2023-03-01T03:50:20;-5.70;99.90
44843;DHT22;31884;52.538;13.820;2023-03-01T03:52:46;-5.70;99.90
44843;DHT22;31884;52.538;13.820;2023-03-01T03:55:12;-5.70;99.90
44843;DHT22;31884;52.538;13.820;2023-03-01T03:57:40;-5.70;99.90
44843;DHT22;31884;52.538;13.820;2023-03-01T04:00:09;-5.70;99.90
44843;DHT22;31884;52.538;13.820;2023-03-01T04:02:42;-5.70;99.90
44843;DHT22;31884;52.538;13.820;2023-03-01T04:05:09;-5.70;99.90
44843;DHT22;31884;52.538;13.820;2023-03-01T04:07:36;-5.70;99.90
44843;DHT22;31884;52.538;13.820;2023-03-01T04:10:06;-5.70;99.90
44843;DHT22;31884;52.538;13.820;2023-03-01T04:12:33;-5.80;99.90
44843;DHT22;31884;52.538;13.820;2023-03-01T04:15:03;-5.80;99.90
44843;DHT22;31884;52.538;13.820;2023-03-01T04:17:38;-5.80;99.90
44843;DHT22;31884;52.538;13.820;2023-03-01T04:20:05;-5.80;99.90
44843;DHT22;31884;52.538;13.820;2023-03-01T04:22:31;-5.80;99.90
44843;DHT22;31884;52.538;13.820;2023-03-01T04:24:57;-5.80;99.90
44843;DHT22;31884;52.538;13.820;2023-03-01T04:27:22;-5.80;99.90
44843;DHT22;31884;52.538;13.820;2023-03-01T04:29:48;-5.90;99.90
44843;DHT22;31884;52.538;13.820;2023-03-01T04:32:13;-5.80;99.90
44843;DHT22;31884;52.538;13.820;2023-03-01T04:34:41;-5.90;99.90
44843;DHT22;31884;52.538;13.820;2023-03-01T04:37:06;-5.90;99.90
44843;DHT22;31884;52.538;13.820;2023-03-01T04:39:32;-5.90;99.90
44843;DHT22;31884;52.538;13.820;2023-03-01T04:41:57;-5.90;99.90
44843;DHT22;31884;52.538;13.820;2023-03-01T04:44:23;-5.90;99.90
44843;DHT22;31884;52.538;13.820;2023-03-01T04:46:49;-5.90;99.90
44843;DHT22;31884;52.538;13.820;2023-03-01T04:49:15;-5.90;99.90
44843;DHT22;31884;52.538;13.820;2023-03-01T04:51:41;-5.90;99.90
44843;DHT22;31884;52.538;13.820;2023-03-01T04:54:06;-5.90;99.90
44843;DHT22;31884;52.538;13.820;2023-03-01T04:56:34;-5.90;99.90
44843;DHT22;31884;52.538;13.820;2023-03-01T04:58:59;-5.90;99.90
44843;DHT22;31884;52.538;13.820;2023-03-01T05:01:25;-5.90;99.90
44843;DHT22;31884;52.538;13.820;2023-03-01T05:03:51;-5.90;99.90
44843;DHT22;31884;52.538;13.820;2023-03-01T05:06:18;-5.90;99.90
44843;DHT22;31884;52.538;13.820;2023-03-01T05:08:44;-5.90;99.90
44843;DHT22;31884;52.538;13.820;2023-03-01T05:11:11;-5.90;99.90
44843;DHT22;31884;52.538;13.820;2023-03-01T05:13:38;-6.00;99.90
44843;DHT22;31884;52.538;13.820;2023-03-01T05:16:05;-6.00;99.90
44843;DHT22;31884;52.538;13.820;2023-03-01T05:18:32;-6.00;99.90
44843;DHT22;31884;52.538;13.820;2023-03-01T05:21:07;-6.00;99.90
44843;DHT22;31884;52.538;13.820;2023-03-01T05:23:33;-6.10;99.90
44843;DHT22;31884;52.538;13.820;2023-03-01T05:26:00;-6.00;99.90
44843;DHT22;31884;52.538;13.820;2023-03-01T05:28:26;-6.00;99.90
44843;DHT22;31884;52.538;13.820;2023-03-01T05:30:52;-6.10;99.90
44843;DHT22;31884;52.538;13.820;2023-03-01T05:33:17;-6.10;99.90
44843;DHT22;31884;52.538;13.820;2023-03-01T05:35:45;-6.10;99.90
44843;DHT22;31884;52.538;13.820;2023-03-01T05:38:12;-6.10;99.90
44843;DHT22;31884;52.538;13.820;2023-03-01T05:40:46;-6.10;99.90
44843;DHT22;31884;52.538;13.820;2023-03-01T05:43:13;-6.10;99.90
44843;DHT22;31884;52.538;13.820;2023-03-01T05:45:40;-6.10;99.90
44843;DHT22;31884;52.538;13.820;2023-03-01T05:48:06;-6.10;99.90
44843;DHT22;31884;52.538;13.820;2023-03-01T05:50:34;-6.10;99.90
44843;DHT22;31884;52.538;13.820;2023-03-01T05:53:14;-6.10;99.90
44843;DHT22;31884;52.538;13.820;2023-03-01T05:55:40;-6.10;99.90
44843;DHT22;31884;52.538;13.820;2023-03-01T05:58:10;-6.10;99.90
44843;DHT22;31884;52.538;13.820;2023-03-01T06:00:36;-6.00;99.90
44843;DHT22;31884;52.538;13.820;2023-03-01T06:03:02;-6.00;99.90
44843;DHT22;31884;52.538;13.820;2023-03-01T06:05:29;-5.90;99.90
44843;DHT22;31884;52.538;13.820;2023-03-01T06:07:55;-5.90;99.90
44843;DHT22;31884;52.538;13.820;2023-03-01T06:10:22;-5.80;99.90
44843;DHT22;31884;52.538;13.820;2023-03-01T06:12:47;-5.70;99.90
44843;DHT22;31884;52.538;13.820;2023-03-01T06:15:15;-5.70;99.90
44843;DHT22;31884;52.538;13.820;2023-03-01T06:17:43;-5.60;99.90
44843;DHT22;31884;52.538;13.820;2023-03-01T06:20:20;-5.50;99.90
44843;DHT22;31884;52.538;13.820;2023-03-01T06:22:47;-5.40;99.90
44843;DHT22;31884;52.538;13.820;2023-03-01T06:25:15;-5.40;99.90
44843;DHT22;31884;52.538;13.820;2023-03-01T06:27:41;-5.20;99.90
44843;DHT22;31884;52.538;13.820;2023-03-01T06:30:08;-5.10;99.90
44843;DHT22;31884;52.538;13.820;2023-03-01T06:32:36;-5.00;99.90
44843;DHT22;31884;52.538;13.820;2023-03-01T06:35:03;-4.70;99.90
44843;DHT22;31884;52.538;13.820;2023-03-01T06:37:28;-4.20;99.90
44843;DHT22;31884;52.538;13.820;2023-03-01T06:39:54;-3.70;99.90
44843;DHT22;31884;52.538;13.820;2023-03-01T06:42:19;-3.10;99.90
44843;DHT22;31884;52.538;13.820;2023-03-01T06:44:44;-2.50;99.90
44843;DHT22;31884;52.538;13.820;2023-03-01T06:47:11;-1.90;99.90
44843;DHT22;31884;52.538;13.820;2023-03-01T06:49:36;-1.20;97.10
44843;DHT22;31884;52.538;13.820;2023-03-01T06:52:02;-0.60;94.10
44843;DHT22;31884;52.538;13.820;2023-03-01T06:54:27;0.00;91.30
44843;DHT22;31884;52.538;13.820;2023-03-01T06:56:53;0.50;85.40
44843;DHT22;31884;52.538;13.820;2023-03-01T06:59:19;1.00;82.60
44843;DHT22;31884;52.538;13.820;2023-03-01T07:01:44;1.50;81.60
44843;DHT22;31884;52.538;13.820;2023-03-01T07:04:10;2.00;78.70
44843;DHT22;31884;52.538;13.820;2023-03-01T07:06:36;2.40;76.80
44843;DHT22;31884;52.538;13.820;2023-03-01T07:09:02;2.70;75.90
44843;DHT22;31884;52.538;13.820;2023-03-01T07:11:28;2.90;73.60
44843;DHT22;31884;52.538;13.820;2023-03-01T07:13:53;3.20;70.40
44843;DHT22;31884;52.538;13.820;2023-03-01T07:16:19;3.60;73.20
44843;DHT22;31884;52.538;13.820;2023-03-01T07:18:46;3.90;71.40
44843;DHT22;31884;52.538;13.820;2023-03-01T07:21:14;4.20;70.30
44843;DHT22;31884;52.538;13.820;2023-03-01T07:23:39;4.40;71.20
44843;DHT22;31884;52.538;13.820;2023-03-01T07:26:05;4.70;73.30
44843;DHT22;31884;52.538;13.820;2023-03-01T07:28:31;4.80;72.40
44843;DHT22;31884;52.538;13.820;2023-03-01T07:31:02;4.80;71.60
44843;DHT22;31884;52.538;13.820;2023-03-01T07:33:28;4.80;75.80
44843;DHT22;31884;52.538;13.820;2023-03-01T07:35:57;4.70;68.10
44843;DHT22;31884;52.538;13.820;2023-03-01T07:38:23;4.60;72.00
44843;DHT22;31884;52.538;13.820;2023-03-01T07:40:49;4.70;72.90
44843;DHT22;31884;52.538;13.820;2023-03-01T07:43:14;4.90;75.20
44843;DHT22;31884;52.538;13.820;2023-03-01T07:45:40;5.10;73.70
44843;DHT22;31884;52.538;13.820;2023-03-01T07:48:05;5.20;72.90
44843;DHT22;31884;52.538;13.820;2023-03-01T07:50:31;5.30;71.70
44843;DHT22;31884;52.538;13.820;2023-03-01T07:52:56;5.60;76.80
44843;DHT22;31884;52.538;13.820;2023-03-01T07:55:21;5.90;73.90
44843;DHT22;31884;52.538;13.820;2023-03-01T07:57:47;6.20;76.40
44843;DHT22;31884;52.538;13.820;2023-03-01T08:00:13;6.40;75.40
44843;DHT22;31884;52.538;13.820;2023-03-01T08:02:38;6.60;72.10
44843;DHT22;31884;52.538;13.820;2023-03-01T08:05:05;6.80;80.70
44843;DHT22;31884;52.538;13.820;2023-03-01T08:07:31;7.00;76.20
44843;DHT22;31884;52.538;13.820;2023-03-01T08:09:56;7.10;75.70
44843;DHT22;31884;52.538;13.820;2023-03-01T08:12:22;7.30;72.80
44843;DHT22;31884;52.538;13.820;2023-03-01T08:14:47;7.40;75.20
44843;DHT22;31884;52.538;13.820;2023-03-01T08:17:14;7.50;72.90
44843;DHT22;31884;52.538;13.820;2023-03-01T08:19:39;7.60;76.20
44843;DHT22;31884;52.538;13.820;2023-03-01T08:22:05;7.70;74.30
44843;DHT22;31884;52.538;13.820;2023-03-01T08:24:30;7.80;74.10
44843;DHT22;31884;52.538;13.820;2023-03-01T08:26:56;8.00;75.20
44843;DHT22;31884;52.538;13.820;2023-03-01T08:29:22;8.10;71.60
44843;DHT22;31884;52.538;13.820;2023-03-01T08:31:48;8.30;70.80
44843;DHT22;31884;52.538;13.820;2023-03-01T08:34:15;8.30;69.60
44843;DHT22;31884;52.538;13.820;2023-03-01T08:36:43;8.50;65.70
44843;DHT22;31884;52.538;13.820;2023-03-01T08:39:11;8.60;65.10
44843;DHT22;31884;52.538;13.820;2023-03-01T08:41:37;8.70;65.50
44843;DHT22;31884;52.538;13.820;2023-03-01T08:44:04;8.80;60.10
44843;DHT22;31884;52.538;13.820;2023-03-01T08:46:32;8.90;59.70
44843;DHT22;31884;52.538;13.820;2023-03-01T08:48:57;9.00;59.20
44843;DHT22;31884;52.538;13.820;2023-03-01T08:51:24;9.10;56.80
44843;DHT22;31884;52.538;13.820;2023-03-01T08:53:50;9.10;53.80
44843;DHT22;31884;52.538;13.820;2023-03-01T08:56:16;9.10;51.30
44843;DHT22;31884;52.538;13.820;2023-03-01T08:58:44;9.20;49.00
44843;DHT22;31884;52.538;13.820;2023-03-01T09:01:11;9.30;50.70
44843;DHT22;31884;52.538;13.820;2023-03-01T09:03:37;9.40;47.10
44843;DHT22;31884;52.538;13.820;2023-03-01T09:06:04;9.50;45.40
44843;DHT22;31884;52.538;13.820;2023-03-01T09:08:30;9.50;41.90
44843;DHT22;31884;52.538;13.820;2023-03-01T09:10:56;9.60;37.60
44843;DHT22;31884;52.538;13.820;2023-03-01T09:13:22;9.60;37.80
44843;DHT22;31884;52.538;13.820;2023-03-01T09:15:50;9.70;37.80
44843;DHT22;31884;52.538;13.820;2023-03-01T09:18:15;9.70;35.80
44843;DHT22;31884;52.538;13.820;2023-03-01T09:20:41;9.80;34.60
44843;DHT22;31884;52.538;13.820;2023-03-01T09:23:07;9.80;30.50
44843;DHT22;31884;52.538;13.820;2023-03-01T09:25:34;9.90;31.80
44843;DHT22;31884;52.538;13.820;2023-03-01T09:27:59;10.10;28.30
44843;DHT22;31884;52.538;13.820;2023-03-01T09:30:25;10.20;28.00
44843;DHT22;31884;52.538;13.820;2023-03-01T09:32:50;10.20;18.30
44843;DHT22;31884;52.538;13.820;2023-03-01T09:35:16;10.20;22.90
44843;DHT22;31884;52.538;13.820;2023-03-01T09:37:41;10.20;23.70
44843;DHT22;31884;52.538;13.820;2023-03-01T09:40:20;10.30;22.90
44843;DHT22;31884;52.538;13.820;2023-03-01T09:42:58;10.20;13.90
44843;DHT22;31884;52.538;13.820;2023-03-01T09:45:30;10.20;17.00
44843;DHT22;31884;52.538;13.820;2023-03-01T09:47:58;10.10;17.10
44843;DHT22;31884;52.538;13.820;2023-03-01T09:50:28;10.00;16.40
44843;DHT22;31884;52.538;13.820;2023-03-01T09:53:02;9.80;16.40
44843;DHT22;31884;52.538;13.820;2023-03-01T09:55:33;9.90;17.40
44843;DHT22;31884;52.538;13.820;2023-03-01T09:58:29;9.90;15.70
44843;DHT22;31884;52.538;13.820;2023-03-01T10:00:59;9.70;14.30
44843;DHT22;31884;52.538;13.820;2023-03-01T10:03:43;9.60;15.00
44843;DHT22;31884;52.538;13.820;2023-03-01T10:06:19;9.50;12.10
44843;DHT22;31884;52.538;13.820;2023-03-01T10:08:55;9.20;12.40
44843;DHT22;31884;52.538;13.820;2023-03-01T10:11:25;8.80;13.30
44843;DHT22;31884;52.538;13.820;2023-03-01T10:14:15;8.70;12.00
44843;DHT22;31884;52.538;13.820;2023-03-01T10:17:04;8.50;11.40
44843;DHT22;31884;52.538;13.820;2023-03-01T10:19:40;8.40;12.80
44843;DHT22;31884;52.538;13.820;2023-03-01T10:24:47;8.40;11.60
44843;DHT22;31884;52.538;13.820;2023-03-01T10:27:41;8.30;11.60
44843;DHT22;31884;52.538;13.820;2023-03-01T10:30:15;8.10;12.30
44843;DHT22;31884;52.538;13.820;2023-03-01T10:32:42;8.20;13.10
44843;DHT22;31884;52.538;13.820;2023-03-01T10:35:20;8.30;12.40
44843;DHT22;31884;52.538;13.820;2023-03-01T10:38:06;8.20;12.50
44843;DHT22;31884;52.538;13.820;2023-03-01T10:40:34;8.20;12.40
44843;DHT22;31884;52.538;13.820;2023-03-01T10:43:02;8.10;11.50
44843;DHT22;31884;52.538;13.820;2023-03-01T10:48:21;8.00;12.30
44843;DHT22;31884;52.538;13.820;2023-03-01T10:51:12;7.90;12.30
44843;DHT22;31884;52.538;13.820;2023-03-01T10:53:47;8.00;12.50
44843;DHT22;31884;52.538;13.820;2023-03-01T10:56:14;8.00;12.10
44843;DHT22;31884;52.538;13.820;2023-03-01T10:59:00;7.80;11.60
44843;DHT22;31884;52.538;13.820;2023-03-01T11:01:36;7.60;9.00
44843;DHT22;31884;52.538;13.820;2023-03-01T11:04:07;7.40;9.50
44843;DHT22;31884;52.538;13.820;2023-03-01T11:06:36;7.40;9.50
44843;DHT22;31884;52.538;13.820;2023-03-01T11:09:22;7.40;10.80
44843;DHT22;31884;52.538;13.820;2023-03-01T11:11:56;7.40;11.60
44843;DHT22;31884;52.538;13.820;2023-03-01T11:14:24;7.60;12.20
44843;DHT22;31884;52.538;13.820;2023-03-01T11:17:04;7.60;11.70
44843;DHT22;31884;52.538;13.820;2023-03-01T11:19:31;7.60;12.30
44843;DHT22;31884;52.538;13.820;2023-03-01T11:22:07;7.70;12.60
44843;DHT22;31884;52.538;13.820;2023-03-01T11:24:39;7.70;12.60
44843;DHT22;31884;52.538;13.820;2023-03-01T11:27:16;7.70;12.80
44843;DHT22;31884;52.538;13.820;2023-03-01T11:29:43;7.70;12.60
44843;DHT22;31884;52.538;13.820;2023-03-01T11:32:11;7.60;12.00
44843;DHT22;31884;52.538;13.820;2023-03-01T11:34:43;7.60;12.90
44843;DHT22;31884;52.538;13.820;2023-03-01T11:37:19;7.60;11.80
44843;DHT22;31884;52.538;13.820;2023-03-01T11:39:54;7.60;12.10
44843;DHT22;31884;52.538;13.820;2023-03-01T11:45:31;7.60;12.40
44843;DHT22;31884;52.538;13.820;2023-03-01T11:48:55;7.60;11.80
44843;DHT22;31884;52.538;13.820;2023-03-01T11:51:02;7.60;11.00
44843;DHT22;31884;52.538;13.820;2023-03-01T11:53:47;7.60;10.60
44843;DHT22;31884;52.538;13.820;2023-03-01T11:56:34;7.50;9.90
44843;DHT22;31884;52.538;13.820;2023-03-01T12:02:00;7.50;10.90
44843;DHT22;31884;52.538;13.820;2023-03-01T12:07:20;7.50;10.80
44843;DHT22;31884;52.538;13.820;2023-03-01T12:12:30;7.60;11.20
44843;DHT22;31884;52.538;13.820;2023-03-01T12:15:13;7.60;11.10
44843;DHT22;31884;52.538;13.820;2023-03-01T12:23:41;7.80;10.60
44843;DHT22;31884;52.538;13.820;2023-03-01T12:31:43;7.80;10.00
44843;DHT22;31884;52.538;13.820;2023-03-01T12:34:33;7.70;9.00
44843;DHT22;31884;52.538;13.820;2023-03-01T12:37:21;7.70;10.10
44843;DHT22;31884;52.538;13.820;2023-03-01T12:48:53;7.70;8.90
44843;DHT22;31884;52.538;13.820;2023-03-01T12:51:24;7.60;8.60
44843;DHT22;31884;52.538;13.820;2023-03-01T12:53:54;7.50;8.60
44843;DHT22;31884;52.538;13.820;2023-03-01T12:56:29;7.50;7.80
44843;DHT22;31884;52.538;13.820;2023-03-01T13:00:17;7.50;8.20
44843;DHT22;31884;52.538;13.820;2023-03-01T13:02:22;7.50;8.50
44843;DHT22;31884;52.538;13.820;2023-03-01T13:10:27;7.40;9.40
44843;DHT22;31884;52.538;13.820;2023-03-01T13:23:21;7.40;9.90
44843;DHT22;31884;52.538;13.820;2023-03-01T13:33:43;7.40;10.50
44843;DHT22;31884;52.538;13.820;2023-03-01T13:36:11;7.40;10.60
44843;DHT22;31884;52.538;13.820;2023-03-01T13:38:44;7.50;11.10
44843;DHT22;31884;52.538;13.820;2023-03-01T13:41:11;7.50;10.90
44843;DHT22;31884;52.538;13.820;2023-03-01T13:43:38;7.50;11.00
44843;DHT22;31884;52.538;13.820;2023-03-01T13:46:17;7.50;9.80
44843;DHT22;31884;52.538;13.820;2023-03-01T13:48:47;7.40;10.60
44843;DHT22;31884;52.538;13.820;2023-03-01T13:51:14;7.50;10.30
44843;DHT22;31884;52.538;13.820;2023-03-01T13:53:45;7.50;10.60
44843;DHT22;31884;52.538;13.820;2023-03-01T13:56:21;7.50;10.00
44843;DHT22;31884;52.538;13.820;2023-03-01T14:01:32;7.50;10.10
44843;DHT22;31884;52.538;13.820;2023-03-01T14:03:59;7.50;10.20
44843;DHT22;31884;52.538;13.820;2023-03-01T14:06:27;7.50;10.50
44843;DHT22;31884;52.538;13.820;2023-03-01T14:09:15;7.50;10.50
44843;DHT22;31884;52.538;13.820;2023-03-01T14:12:03;7.50;10.30
44843;DHT22;31884;52.538;13.820;2023-03-01T14:14:39;7.50;10.60
44843;DHT22;31884;52.538;13.820;2023-03-01T14:19:56;7.50;10.60
44843;DHT22;31884;52.538;13.820;2023-03-01T14:22:31;7.50;10.90
44843;DHT22;31884;52.538;13.820;2023-03-01T14:25:01;7.50;10.30
44843;DHT22;31884;52.538;13.820;2023-03-01T14:27:33;7.50;9.50
44843;DHT22;31884;52.538;13.820;2023-03-01T14:30:03;7.50;9.60
44843;DHT22;31884;52.538;13.820;2023-03-01T14:32:35;7.50;10.00
44843;DHT22;31884;52.538;13.820;2023-03-01T14:35:01;7.50;10.30
44843;DHT22;31884;52.538;13.820;2023-03-01T14:37:32;7.50;10.00
44843;DHT22;31884;52.538;13.820;2023-03-01T14:39:59;7.50;10.30
44843;DHT22;31884;52.538;13.820;2023-03-01T14:42:29;7.50;10.50
44843;DHT22;31884;52.538;13.820;2023-03-01T14:44:57;7.50;10.50
44843;DHT22;31884;52.538;13.820;2023-03-01T14:47:32;7.50;10.90
44843;DHT22;31884;52.538;13.820;2023-03-01T14:50:02;7.50;11.00
44843;DHT22;31884;52.538;13.820;2023-03-01T14:52:38;7.50;11.10
44843;DHT22;31884;52.538;13.820;2023-03-01T14:55:13;7.50;10.90
44843;DHT22;31884;52.538;13.820;2023-03-01T14:57:42;7.50;10.90
44843;DHT22;31884;52.538;13.820;2023-03-01T15:00:10;7.50;10.10
44843;DHT22;31884;52.538;13.820;2023-03-01T15:02:41;7.50;10.40
44843;DHT22;31884;52.538;13.820;2023-03-01T15:05:09;7.50;10.40
44843;DHT22;31884;52.538;13.820;2023-03-01T15:07:40;7.50;10.60
44843;DHT22;31884;52.538;13.820;2023-03-01T15:10:17;7.50;10.60
44843;DHT22;31884;52.538;13.820;2023-03-01T15:12:45;7.50;10.60
44843;DHT22;31884;52.538;13.820;2023-03-01T15:15:33;7.50;10.40
44843;DHT22;31884;52.538;13.820;2023-03-01T15:18:25;7.40;9.90
44843;DHT22;31884;52.538;13.820;2023-03-01T15:20:50;7.40;9.90
44843;DHT22;31884;52.538;13.820;2023-03-01T15:23:26;7.40;10.10
44843;DHT22;31884;52.538;13.820;2023-03-01T15:25:53;7.40;10.40
44843;DHT22;31884;52.538;13.820;2023-03-01T15:28:31;7.40;10.60
44843;DHT22;31884;52.538;13.820;2023-03-01T15:31:20;7.30;10.70
44843;DHT22;31884;52.538;13.820;2023-03-01T15:33:46;7.30;11.20
44843;DHT22;31884;52.538;13.820;2023-03-01T15:39:03;7.20;11.40
44843;DHT22;31884;52.538;13.820;2023-03-01T15:41:46;7.20;11.50
44843;DHT22;31884;52.538;13.820;2023-03-01T15:44:28;7.10;11.70
44843;DHT22;31884;52.538;13.820;2023-03-01T15:46:54;7.10;11.30
44843;DHT22;31884;52.538;13.820;2023-03-01T15:49:42;7.10;11.60
44843;DHT22;31884;52.538;13.820;2023-03-01T15:52:35;7.00;11.30
44843;DHT22;31884;52.538;13.820;2023-03-01T15:55:12;7.00;11.30
44843;DHT22;31884;52.538;13.820;2023-03-01T15:57:39;7.00;11.50
44843;DHT22;31884;52.538;13.820;2023-03-01T16:00:05;7.00;12.20
44843;DHT22;31884;52.538;13.820;2023-03-01T16:02:36;7.00;12.90
44843;DHT22;31884;52.538;13.820;2023-03-01T16:05:03;6.90;13.00
44843;DHT22;31884;52.538;13.820;2023-03-01T16:07:28;6.90;13.10
44843;DHT22;31884;52.538;13.820;2023-03-01T16:09:54;6.90;13.30
44843;DHT22;31884;52.538;13.820;2023-03-01T16:12:19;6.90;13.40
44843;DHT22;31884;52.538;13.820;2023-03-01T16:14:46;6.80;13.60
44843;DHT22;31884;52.538;13.820;2023-03-01T16:17:13;6.70;13.80
44843;DHT22;31884;52.538;13.820;2023-03-01T16:19:39;6.70;14.20
44843;DHT22;31884;52.538;13.820;2023-03-01T16:22:06;6.60;14.50
44843;DHT22;31884;52.538;13.820;2023-03-01T16:24:32;6.50;15.40
44843;DHT22;31884;52.538;13.820;2023-03-01T16:26:57;6.50;15.70
44843;DHT22;31884;52.538;13.820;2023-03-01T16:29:23;6.40;16.20
44843;DHT22;31884;52.538;13.820;2023-03-01T16:31:48;6.30;17.00
44843;DHT22;31884;52.538;13.820;2023-03-01T16:34:14;6.20;16.80
44843;DHT22;31884;52.538;13.820;2023-03-01T16:36:42;6.20;17.90
44843;DHT22;31884;52.538;13.820;2023-03-01T16:39:09;6.00;17.70
44843;DHT22;31884;52.538;13.820;2023-03-01T16:41:34;5.90;18.30
44843;DHT22;31884;52.538;13.820;2023-03-01T16:44:00;5.80;18.70
44843;DHT22;31884;52.538;13.820;2023-03-01T16:46:28;5.70;18.80
44843;DHT22;31884;52.538;13.820;2023-03-01T16:48:54;5.60;19.20
44843;DHT22;31884;52.538;13.820;2023-03-01T16:51:21;5.40;19.50
44843;DHT22;31884;52.538;13.820;2023-03-01T16:53:48;5.30;20.10